Time,TemperatureF,DewpointF,PressureIn,WindDirection,WindDirectionDegrees,WindSpeedMPH,WindSpeedGustMPH,Humidity,HourlyPrecipIn,Conditions,Clouds,dailyrainin,SoftwareType,DateUTC
2013-02-13 00:02:00,14.0,14.0,-100.00,SW,225,1.0,3.0,97,-99.99,,,-99.99,,2013-02-13 06:02:00,
2013-02-13 00:11:00,14.0,14.0,-100.00,SW,225,1.0,3.0,97,-99.99,,,-99.99,,2013-02-13 06:11:00,
2013-02-13 00:32:00,15.0,14.0,-100.00,SSW,205,2.0,4.0,97,-99.99,,,-99.99,,2013-02-13 06:32:00,
2013-02-13 00:42:00,15.0,14.0,-100.00,SSW,205,2.0,4.0,97,-99.99,,,-99.99,,2013-02-13 06:42:00,
2013-02-13 00:52:00,15.0,14.0,-100.00,SSW,205,2.0,4.0,97,-99.99,,,-99.99,,2013-02-13 06:52:00,
2013-02-13 01:02:00,15.0,14.0,-100.00,SSW,205,2.0,4.0,97,-99.99,,,-99.99,,2013-02-13 07:02:00,
2013-02-13 01:11:00,15.0,14.0,-100.00,SSW,205,2.0,4.0,97,-99.99,,,-99.99,,2013-02-13 07:11:00,
2013-02-13 01:32:00,14.0,13.0,-100.00,SW,220,1.0,4.0,97,-99.99,,,-99.99,,2013-02-13 07:32:00,
2013-02-13 01:42:00,14.0,13.0,-100.00,SW,220,1.0,4.0,97,-99.99,,,-99.99,,2013-02-13 07:42:00,
2013-02-13 01:52:00,14.0,13.0,-100.00,SW,220,1.0,4.0,97,-99.99,,,-99.99,,2013-02-13 07:52:00,
2013-02-13 02:01:00,14.0,13.0,-100.00,SW,220,1.0,4.0,97,-99.99,,,-99.99,,2013-02-13 08:01:00,
2013-02-13 02:11:00,14.0,13.0,-100.00,SW,220,1.0,4.0,97,-99.99,,,-99.99,,2013-02-13 08:11:00,
2013-02-13 02:43:00,16.0,15.0,-100.00,WNW,295,0.0,1.0,97,-99.99,,,-99.99,,2013-02-13 08:43:00,
2013-02-13 02:52:00,16.0,15.0,-100.00,WNW,295,0.0,1.0,97,-99.99,,,-99.99,,2013-02-13 08:52:00,
2013-02-13 03:01:00,16.0,15.0,-100.00,WNW,295,0.0,1.0,97,-99.99,,,-99.99,,2013-02-13 09:01:00,
2013-02-13 03:11:00,16.0,15.0,-100.00,WNW,295,0.0,1.0,97,-99.99,,,-99.99,,2013-02-13 09:11:00,
2013-02-13 03:32:00,16.0,15.0,-100.00,SSW,210,0.0,2.0,97,-99.99,,,-99.99,,2013-02-13 09:32:00,
2013-02-13 03:42:00,16.0,15.0,-100.00,SSW,210,0.0,2.0,97,-99.99,,,-99.99,,2013-02-13 09:42:00,
2013-02-13 03:52:00,16.0,15.0,-100.00,SSW,210,0.0,2.0,97,-99.99,,,-99.99,,2013-02-13 09:52:00,
2013-02-13 04:01:00,16.0,15.0,-100.00,SSW,210,0.0,2.0,97,-99.99,,,-99.99,,2013-02-13 10:01:00,
2013-02-13 04:11:00,16.0,15.0,-100.00,SSW,210,0.0,2.0,97,-99.99,,,-99.99,,2013-02-13 10:11:00,
2013-02-13 04:32:00,18.0,18.0,-100.00,West,270,1.0,2.0,97,-99.99,,,-99.99,,2013-02-13 10:32:00,
2013-02-13 04:42:00,19.0,18.0,-100.00,West,270,1.0,2.0,97,-99.99,,,-99.99,,2013-02-13 10:42:00,
2013-02-13 04:52:00,19.0,18.0,-100.00,West,270,1.0,2.0,97,-99.99,,,-99.99,,2013-02-13 10:52:00,
2013-02-13 05:01:00,19.0,18.0,-100.00,West,270,1.0,2.0,97,-99.99,,,-99.99,,2013-02-13 11:01:00,
2013-02-13 05:11:00,19.0,18.0,-100.00,West,270,1.0,2.0,97,-99.99,,,-99.99,,2013-02-13 11:11:00,
2013-02-13 05:32:00,18.0,17.0,-100.00,WNW,295,1.0,1.0,97,-99.99,,,-99.99,,2013-02-13 11:32:00,
2013-02-13 05:42:00,18.0,17.0,-100.00,WNW,295,1.0,1.0,97,-99.99,,,-99.99,,2013-02-13 11:42:00,
2013-02-13 05:52:00,18.0,17.0,-100.00,WNW,295,1.0,1.0,97,-99.99,,,-99.99,,2013-02-13 11:52:00,
2013-02-13 06:02:00,18.0,17.0,-100.00,WNW,295,1.0,1.0,97,-99.99,,,-99.99,,2013-02-13 12:02:00,
2013-02-13 06:11:00,18.0,17.0,-100.00,WNW,295,1.0,1.0,97,-99.99,,,-99.99,,2013-02-13 12:11:00,
2013-02-13 06:32:00,19.0,18.0,-100.00,WSW,250,0.0,2.0,98,-99.99,,,-99.99,,2013-02-13 12:32:00,
2013-02-13 06:42:00,19.0,18.0,-100.00,WSW,250,0.0,2.0,98,-99.99,,,-99.99,,2013-02-13 12:42:00,
2013-02-13 06:52:00,19.0,18.0,-100.00,WSW,250,0.0,2.0,98,-99.99,,,-99.99,,2013-02-13 12:52:00,
2013-02-13 07:02:00,19.0,18.0,-100.00,WSW,250,0.0,2.0,98,-99.99,,,-99.99,,2013-02-13 13:02:00,
2013-02-13 07:11:00,19.0,18.0,-100.00,WSW,250,0.0,2.0,98,-99.99,,,-99.99,,2013-02-13 13:11:00,
2013-02-13 07:42:00,18.0,18.0,-100.00,WNW,295,0.0,2.0,98,-99.99,,,-99.99,,2013-02-13 13:42:00,
2013-02-13 07:52:00,18.0,18.0,-100.00,WNW,295,0.0,2.0,98,-99.99,,,-99.99,,2013-02-13 13:52:00,
2013-02-13 08:01:00,18.0,18.0,-100.00,WNW,295,0.0,2.0,98,-99.99,,,-99.99,,2013-02-13 14:01:00,
2013-02-13 08:11:00,18.0,18.0,-100.00,WNW,295,0.0,2.0,98,-99.99,,,-99.99,,2013-02-13 14:11:00,
2013-02-13 08:42:00,21.0,20.0,-100.00,SW,225,1.0,4.0,98,-99.99,,,-99.99,,2013-02-13 14:42:00,
2013-02-13 08:52:00,21.0,20.0,-100.00,SW,225,1.0,4.0,98,-99.99,,,-99.99,,2013-02-13 14:52:00,
2013-02-13 09:01:00,21.0,20.0,-100.00,SW,225,1.0,4.0,98,-99.99,,,-99.99,,2013-02-13 15:01:00,
2013-02-13 09:11:00,21.0,20.0,-100.00,SW,225,1.0,4.0,98,-99.99,,,-99.99,,2013-02-13 15:11:00,
2013-02-13 11:01:00,30.0,26.0,-100.00,West,270,0.0,4.0,86,-99.99,,,-99.99,,2013-02-13 17:01:00,
2013-02-13 11:11:00,30.0,26.0,-100.00,West,270,0.0,4.0,86,-99.99,,,-99.99,,2013-02-13 17:11:00,
2013-02-13 11:21:00,30.0,26.0,-100.00,West,270,0.0,4.0,86,-99.99,,,-99.99,,2013-02-13 17:21:00,
2013-02-13 11:32:00,30.0,26.0,-100.00,West,270,0.0,4.0,86,-99.99,,,-99.99,,2013-02-13 17:32:00,
2013-02-13 11:41:00,30.0,26.0,-100.00,West,270,0.0,4.0,86,-99.99,,,-99.99,,2013-02-13 17:41:00,
2013-02-13 12:02:00,33.0,25.0,-100.00,West,260,3.0,6.0,72,-99.99,,,-99.99,,2013-02-13 18:02:00,
2013-02-13 12:11:00,33.0,25.0,-100.00,West,260,3.0,6.0,72,-99.99,,,-99.99,,2013-02-13 18:11:00,
2013-02-13 12:23:00,33.0,25.0,-100.00,West,260,3.0,6.0,72,-99.99,,,-99.99,,2013-02-13 18:23:00,
2013-02-13 12:32:00,33.0,25.0,-100.00,West,260,3.0,6.0,72,-99.99,,,-99.99,,2013-02-13 18:32:00,
2013-02-13 12:41:00,33.0,25.0,-100.00,West,260,3.0,6.0,72,-99.99,,,-99.99,,2013-02-13 18:41:00,
2013-02-13 13:11:00,37.0,25.0,-100.00,West,260,2.0,6.0,63,-99.99,,,-99.99,,2013-02-13 19:11:00,
2013-02-13 13:21:00,37.0,25.0,-100.00,West,260,2.0,6.0,63,-99.99,,,-99.99,,2013-02-13 19:21:00,
2013-02-13 13:32:00,37.0,25.0,-100.00,West,260,2.0,6.0,63,-99.99,,,-99.99,,2013-02-13 19:32:00,
2013-02-13 13:42:00,37.0,25.0,-100.00,West,260,2.0,6.0,63,-99.99,,,-99.99,,2013-02-13 19:42:00,
2013-02-13 14:52:00,39.0,26.0,-100.00,SW,220,4.0,7.0,58,-99.99,,,-99.99,,2013-02-13 20:52:00,
2013-02-13 15:01:00,39.0,26.0,-100.00,SW,220,4.0,7.0,58,-99.99,,,-99.99,,2013-02-13 21:01:00,
2013-02-13 15:11:00,39.0,26.0,-100.00,SW,220,4.0,7.0,58,-99.99,,,-99.99,,2013-02-13 21:11:00,
2013-02-13 15:21:00,39.0,26.0,-100.00,SW,220,4.0,7.0,58,-99.99,,,-99.99,,2013-02-13 21:21:00,
2013-02-13 15:31:00,39.0,26.0,-100.00,SW,220,4.0,7.0,58,-99.99,,,-99.99,,2013-02-13 21:31:00,
2013-02-13 15:42:00,39.0,27.0,-100.00,SW,215,1.0,7.0,62,-99.99,,,-99.99,,2013-02-13 21:42:00,
2013-02-13 15:52:00,39.0,27.0,-100.00,SW,215,1.0,7.0,62,-99.99,,,-99.99,,2013-02-13 21:52:00,
2013-02-13 16:02:00,39.0,27.0,-100.00,SW,215,1.0,7.0,62,-99.99,,,-99.99,,2013-02-13 22:02:00,
2013-02-13 16:11:00,39.0,27.0,-100.00,SW,215,1.0,7.0,62,-99.99,,,-99.99,,2013-02-13 22:11:00,
2013-02-13 16:42:00,36.0,29.0,-100.00,SSW,200,2.0,4.0,77,-99.99,,,-99.99,,2013-02-13 22:42:00,
2013-02-13 16:52:00,36.0,29.0,-100.00,SSW,200,2.0,4.0,77,-99.99,,,-99.99,,2013-02-13 22:52:00,
2013-02-13 17:01:00,36.0,29.0,-100.00,SSW,200,2.0,4.0,77,-99.99,,,-99.99,,2013-02-13 23:01:00,
2013-02-13 17:11:00,36.0,29.0,-100.00,SSW,200,2.0,4.0,77,-99.99,,,-99.99,,2013-02-13 23:11:00,
2013-02-13 17:32:00,32.0,28.0,-100.00,West,265,0.0,3.0,85,-99.99,,,-99.99,,2013-02-13 23:32:00,
2013-02-13 17:42:00,32.0,28.0,-100.00,West,265,0.0,3.0,85,-99.99,,,-99.99,,2013-02-13 23:42:00,
2013-02-13 17:52:00,32.0,28.0,-100.00,West,265,0.0,3.0,85,-99.99,,,-99.99,,2013-02-13 23:52:00,
2013-02-13 18:02:00,32.0,28.0,-100.00,West,265,0.0,3.0,85,-99.99,,,-99.99,,2013-02-14 00:02:00,
2013-02-13 18:11:00,32.0,28.0,-100.00,West,265,0.0,3.0,85,-99.99,,,-99.99,,2013-02-14 00:11:00,
2013-02-13 18:32:00,29.0,27.0,-100.00,SW,225,0.0,3.0,93,-99.99,,,-99.99,,2013-02-14 00:32:00,
2013-02-13 18:42:00,29.0,27.0,-100.00,SW,225,0.0,3.0,93,-99.99,,,-99.99,,2013-02-14 00:42:00,
2013-02-13 18:52:00,29.0,27.0,-100.00,SW,225,0.0,3.0,93,-99.99,,,-99.99,,2013-02-14 00:52:00,
2013-02-13 19:01:00,29.0,27.0,-100.00,SW,225,0.0,3.0,93,-99.99,,,-99.99,,2013-02-14 01:01:00,
2013-02-13 19:11:00,29.0,27.0,-100.00,SW,225,0.0,3.0,93,-99.99,,,-99.99,,2013-02-14 01:11:00,
2013-02-13 19:32:00,29.0,28.0,-100.00,SSW,195,0.0,1.0,97,-99.99,,,-99.99,,2013-02-14 01:32:00,
2013-02-13 19:42:00,29.0,28.0,-100.00,SSW,195,0.0,1.0,97,-99.99,,,-99.99,,2013-02-14 01:42:00,
2013-02-13 19:52:00,29.0,28.0,-100.00,SSW,195,0.0,1.0,97,-99.99,,,-99.99,,2013-02-14 01:52:00,
2013-02-13 20:01:00,29.0,28.0,-100.00,SSW,195,0.0,1.0,97,-99.99,,,-99.99,,2013-02-14 02:01:00,
2013-02-13 20:11:00,29.0,28.0,-100.00,SSW,195,0.0,1.0,97,-99.99,,,-99.99,,2013-02-14 02:11:00,
2013-02-13 20:32:00,29.0,29.0,-100.00,SW,230,0.0,3.0,98,-99.99,,,-99.99,,2013-02-14 02:32:00,
2013-02-13 20:42:00,29.0,29.0,-100.00,SW,230,0.0,3.0,98,-99.99,,,-99.99,,2013-02-14 02:42:00,
2013-02-13 20:52:00,29.0,29.0,-100.00,SW,230,0.0,3.0,98,-99.99,,,-99.99,,2013-02-14 02:52:00,
2013-02-13 21:02:00,29.0,29.0,-100.00,SW,230,0.0,3.0,98,-99.99,,,-99.99,,2013-02-14 03:02:00,
2013-02-13 21:11:00,29.0,29.0,-100.00,SW,230,0.0,3.0,98,-99.99,,,-99.99,,2013-02-14 03:11:00,
2013-02-13 21:42:00,29.0,29.0,-100.00,West,260,1.0,6.0,98,-99.99,,,-99.99,,2013-02-14 03:42:00,
2013-02-13 21:52:00,29.0,29.0,-100.00,West,260,1.0,6.0,98,-99.99,,,-99.99,,2013-02-14 03:52:00,
2013-02-13 22:01:00,29.0,29.0,-100.00,West,260,1.0,6.0,98,-99.99,,,-99.99,,2013-02-14 04:01:00,
2013-02-13 22:12:00,29.0,29.0,-100.00,West,260,1.0,6.0,98,-99.99,,,-99.99,,2013-02-14 04:12:00,
2013-02-13 23:42:00,29.0,29.0,-100.00,West,265,2.0,4.0,99,-99.99,,,-99.99,,2013-02-14 05:42:00,
2013-02-13 23:52:00,29.0,29.0,-100.00,West,265,2.0,4.0,99,-99.99,,,-99.99,,2013-02-14 05:52:00,